Time;durP1;ratioP1;P1;durP2;ratioP2;P2;SDS_P1;SDS_P2;PMS_P1;PMS_P2;Temp;Humidity;BMP_temperature;BMP_pressure;BME280_temperature;BME280_humidity;BME280_pressure;Samples;Min_cycle;Max_cycle;Signal;HPM_P1;HPM_P2
2023/05/30 00:01:30;;;;;;;;;;;22.10;44.80;;;22.24;32.32;98867.09;5025211;28;113512;-81
2023/05/30 00:03:56;;;;;;;;;;;22.00;45.20;;;22.19;32.48;98882.34;5009664;28;123434;-82
2023/05/30 00:06:27;;;;;;;;;;;22.00;45.10;;;22.16;32.53;98882.25;5038530;27;123791;-81
2023/05/30 00:08:55;;;;;;;;;;;22.00;45.20;;;22.13;32.50;98897.91;5067448;27;114341;-82
2023/05/30 00:11:28;;;;;;;;;;;21.90;45.20;;;22.09;32.61;98890.66;5064571;27;114441;-80
2023/05/30 00:13:55;;;;;;;;;;;21.90;45.40;;;22.05;32.97;98894.22;5066110;27;124107;-81
2023/05/30 00:16:29;;;;;;;;;;;21.90;45.40;;;22.04;32.74;98908.69;5067612;27;124189;-81
2023/05/30 00:18:56;;;;;;;;;;;21.80;45.60;;;22.00;32.67;98897.41;5067594;27;115434;-82
2023/05/30 00:21:27;;;;;;;;;;;21.80;45.70;;;21.96;32.94;98904.19;5063624;27;114711;-82
2023/05/30 00:23:53;;;;;;;;;;;21.80;45.80;;;21.94;32.86;98906.56;5044289;27;123682;-82
2023/05/30 00:26:20;;;;;;;;;;;21.70;45.80;;;21.91;33.29;98908.16;5069116;27;123691;-82
2023/05/30 00:28:49;;;;;;;;;;;21.70;45.90;;;21.87;33.42;98909.31;5070299;27;114979;-82
2023/05/30 00:31:15;;;;;;;;;;;21.60;46.30;;;21.82;33.22;98900.03;5068708;27;113881;-82
2023/05/30 00:33:42;;;;;;;;;;;21.60;46.40;;;21.79;33.46;98914.88;5053178;27;123493;-82
2023/05/30 00:36:08;;;;;;;;;;;21.60;46.60;;;21.75;33.83;98907.59;5069723;27;124383;-82
2023/05/30 00:38:37;;;;;;;;;;;21.50;46.60;;;21.69;33.71;98912.75;5077468;27;114526;-82
2023/05/30 00:41:03;;;;;;;;;;;21.40;46.90;;;21.64;33.73;98915.09;5061514;27;113760;-82
2023/05/30 00:43:32;;;;;;;;;;;21.40;46.90;;;21.61;34.10;98914.66;5088917;27;124439;-82
2023/05/30 00:46:01;;;;;;;;;;;21.40;46.90;;;21.55;34.30;98910.59;5052939;27;123338;-81
2023/05/30 00:48:29;;;;;;;;;;;21.30;47.40;;;21.48;34.48;98910.50;5089314;27;114425;-81
2023/05/30 00:50:56;;;;;;;;;;;21.30;47.70;;;21.41;34.29;98904.75;5074340;27;113828;-81
2023/05/30 00:53:25;;;;;;;;;;;21.20;47.40;;;21.40;34.31;98908.78;5085344;27;123958;-81
2023/05/30 00:55:52;;;;;;;;;;;21.20;47.60;;;21.37;34.71;98901.09;5069725;27;123943;-81
2023/05/30 00:58:19;;;;;;;;;;;21.20;47.60;;;21.36;34.81;98907.91;5089451;27;114305;-81
2023/05/30 01:00:48;;;;;;;;;;;21.20;47.70;;;21.33;34.51;98903.88;5057340;27;113881;-81
2023/05/30 01:03:15;;;;;;;;;;;21.10;47.70;;;21.32;34.39;98904.22;5072005;27;124487;-82
2023/05/30 01:05:43;;;;;;;;;;;21.10;47.70;;;21.30;34.78;98898.97;5055755;27;123925;-81
2023/05/30 01:08:15;;;;;;;;;;;21.10;47.80;;;21.29;34.36;98910.63;5089643;27;115163;-81
2023/05/30 01:10:41;;;;;;;;;;;21.10;47.90;;;21.29;34.53;98905.81;5070396;27;114854;-82
2023/05/30 01:13:43;;;;;;;;;;;21.10;48.00;;;21.29;34.53;98907.81;5071131;27;124550;-81
2023/05/30 01:16:19;;;;;;;;;;;21.10;48.10;;;21.25;34.98;98906.94;5075899;27;124567;-81
2023/05/30 01:19:12;;;;;;;;;;;21.00;48.20;;;21.12;35.32;98915.63;5071398;27;114563;-81
2023/05/30 01:21:39;;;;;;;;;;;20.90;48.90;;;21.01;35.55;98905.41;5072207;27;113672;-81
2023/05/30 01:24:19;;;;;;;;;;;20.80;49.00;;;20.86;35.89;98905.22;5067309;27;124500;-82
2023/05/30 01:27:07;;;;;;;;;;;20.70;49.30;;;20.76;35.79;98903.06;5056228;27;123826;-82
2023/05/30 01:29:36;;;;;;;;;;;20.60;49.20;;;20.71;35.82;98901.41;5093009;27;113823;-82
2023/05/30 01:32:05;;;;;;;;;;;20.50;49.40;;;20.65;36.22;98896.47;5074350;27;113537;-82
2023/05/30 01:34:32;;;;;;;;;;;20.40;49.70;;;20.58;36.36;98900.00;5073332;27;123962;-82
2023/05/30 01:37:01;;;;;;;;;;;20.40;49.80;;;20.55;36.12;98891.50;5071086;27;123774;-82
2023/05/30 01:39:29;;;;;;;;;;;20.30;49.60;;;20.55;36.52;98894.31;5089009;27;114426;-82
2023/05/30 01:42:02;;;;;;;;;;;20.30;49.80;;;20.54;36.43;98885.06;5075248;27;114254;-82
2023/05/30 01:44:49;;;;;;;;;;;20.40;49.90;;;20.52;36.39;98890.22;5070631;27;124979;-82
2023/05/30 01:47:42;;;;;;;;;;;20.30;49.90;;;20.50;36.47;98890.63;5058525;27;124504;-82
2023/05/30 01:50:27;;;;;;;;;;;20.30;49.80;;;20.50;36.53;98887.00;5086534;27;114067;-82
2023/05/30 01:53:01;;;;;;;;;;;20.30;50.10;;;20.50;36.30;98884.19;5083929;27;114195;-82
2023/05/30 01:55:31;;;;;;;;;;;20.30;50.00;;;20.51;36.38;98891.41;5070117;27;123977;-82
2023/05/30 01:58:02;;;;;;;;;;;20.30;50.00;;;20.54;36.77;98889.88;5070064;27;123885;-82
2023/05/30 02:00:30;;;;;;;;;;;20.30;50.40;;;20.52;36.59;98893.88;5059614;27;115405;-82
2023/05/30 02:02:56;;;;;;;;;;;20.20;50.40;;;20.50;36.75;98901.03;5077095;27;114990;-81
2023/05/30 02:05:27;;;;;;;;;;;20.20;50.40;;;20.50;36.69;98895.41;5060062;27;124600;-82
2023/05/30 02:07:56;;;;;;;;;;;20.20;50.40;;;20.50;36.40;98901.03;5088637;27;123715;-81
2023/05/30 02:10:27;;;;;;;;;;;20.20;50.40;;;20.51;36.76;98897.03;5085088;27;114981;-82
2023/05/30 02:12:54;;;;;;;;;;;20.20;50.40;;;20.51;36.84;98895.03;5087908;27;115111;-82
2023/05/30 02:15:20;;;;;;;;;;;20.20;50.50;;;20.50;37.07;98895.41;5072962;27;123432;-82
2023/05/30 02:17:49;;;;;;;;;;;20.20;50.50;;;20.49;36.76;98893.78;5090320;27;125121;-82
2023/05/30 02:20:18;;;;;;;;;;;20.20;50.60;;;20.48;36.95;98892.19;5088184;27;114643;-82
2023/05/30 02:22:44;;;;;;;;;;;20.20;50.60;;;20.42;37.25;98891.69;5088038;27;113814;-82
2023/05/30 02:25:13;;;;;;;;;;;20.20;51.10;;;20.37;37.10;98891.19;5078248;27;124373;-82
2023/05/30 02:27:39;;;;;;;;;;;20.10;51.00;;;20.36;37.11;98892.38;5075104;27;124048;-83
2023/05/30 02:30:06;;;;;;;;;;;20.10;51.20;;;20.30;37.43;98895.47;5070874;27;113753;-82
2023/05/30 02:32:32;;;;;;;;;;;20.00;51.00;;;20.28;37.30;98897.03;5090176;27;113261;-82
2023/05/30 02:35:01;;;;;;;;;;;20.00;51.10;;;20.26;37.30;98903.03;5072992;27;124193;-82
2023/05/30 02:37:29;;;;;;;;;;;20.00;51.20;;;20.25;37.61;98901.41;5064491;27;124028;-82
2023/05/30 02:39:56;;;;;;;;;;;20.00;51.20;;;20.24;37.57;98905.41;5084597;27;114992;-82
2023/05/30 02:42:25;;;;;;;;;;;20.00;51.30;;;20.26;37.24;98905.06;5072984;27;113772;-82
2023/05/30 02:44:51;;;;;;;;;;;20.00;51.40;;;20.26;37.52;98902.25;5076329;27;124373;-82
2023/05/30 02:47:20;;;;;;;;;;;19.90;51.30;;;20.24;37.47;98905.41;5090834;27;124030;-82
2023/05/30 02:49:49;;;;;;;;;;;20.00;51.50;;;20.24;37.40;98904.59;5066851;27;115217;-82
2023/05/30 02:52:16;;;;;;;;;;;20.00;51.50;;;20.22;37.66;98913.38;5079971;27;114919;-82
2023/05/30 02:54:43;;;;;;;;;;;19.90;51.50;;;20.20;37.77;98910.16;5090459;27;123946;-82
2023/05/30 02:57:15;;;;;;;;;;;19.90;51.50;;;20.15;37.69;98907.66;5091067;27;124553;-82
2023/05/30 02:59:42;;;;;;;;;;;19.90;52.20;;;20.12;37.83;98902.78;5083329;27;114184;-82
2023/05/30 03:02:09;;;;;;;;;;;19.90;51.70;;;20.10;37.86;98909.97;5087938;27;114395;-82
2023/05/30 03:04:37;;;;;;;;;;;19.80;51.70;;;20.06;37.89;98909.91;5046804;27;123749;-82
2023/05/30 03:07:07;;;;;;;;;;;19.80;51.70;;;20.05;37.67;98913.91;5066807;27;124731;-82
2023/05/30 03:09:40;;;;;;;;;;;19.80;51.90;;;20.03;37.90;98907.84;5065221;27;114994;-82
2023/05/30 03:12:06;;;;;;;;;;;19.80;52.00;;;20.02;38.14;98925.88;5079709;27;114018;-82
2023/05/30 03:14:33;;;;;;;;;;;19.80;52.10;;;19.99;38.02;98921.00;5094260;27;124335;-82
2023/05/30 03:17:03;;;;;;;;;;;19.70;52.00;;;19.98;38.01;98920.16;5072578;27;123359;-82
2023/05/30 03:19:32;;;;;;;;;;;19.70;52.10;;;19.97;38.00;98912.94;5082715;27;114617;-82
2023/05/30 03:22:04;;;;;;;;;;;19.70;52.20;;;19.98;38.12;98908.16;5089489;27;113780;-82
2023/05/30 03:24:30;;;;;;;;;;;19.70;52.20;;;19.97;38.22;98917.75;5058559;27;123464;-82
2023/05/30 03:26:57;;;;;;;;;;;19.70;52.30;;;19.95;38.24;98915.31;5091287;27;123959;-82
2023/05/30 03:29:26;;;;;;;;;;;19.70;52.30;;;19.95;38.34;98918.13;5072812;27;118317;-82
2023/05/30 03:31:57;;;;;;;;;;;19.70;52.40;;;19.88;38.67;98919.97;5070447;27;118677;-82
2023/05/30 03:34:26;;;;;;;;;;;19.60;53.00;;;19.76;38.72;98924.56;5053441;27;124070;-83
2023/05/30 03:36:52;;;;;;;;;;;19.60;52.70;;;19.69;38.86;98918.00;5071276;27;123950;-83
2023/05/30 03:39:21;;;;;;;;;;;19.40;52.90;;;19.62;39.00;98918.66;5067745;27;119510;-82
2023/05/30 03:41:50;;;;;;;;;;;19.40;52.90;;;19.62;38.82;98929.88;5087391;27;120326;-82
2023/05/30 03:44:21;;;;;;;;;;;19.40;53.00;;;;;;5060572;27;124236;-83
2023/05/30 03:46:54;;;;;;;;;;;19.40;53.10;;;;;;5088492;27;123428;-82
2023/05/30 03:49:20;;;;;;;;;;;19.40;53.20;;;19.63;39.15;98931.47;5082880;27;120134;-83
2023/05/30 03:51:49;;;;;;;;;;;19.40;53.30;;;19.60;39.11;98933.03;5083758;27;119532;-83
2023/05/30 03:54:16;;;;;;;;;;;19.40;53.50;;;19.57;39.51;98932.97;5062158;27;123025;-82
2023/05/30 03:56:42;;;;;;;;;;;19.30;53.60;;;19.54;39.31;98933.72;5087848;27;124357;-82
2023/05/30 03:59:16;;;;;;;;;;;19.30;53.60;;;19.51;39.63;98945.66;5052957;27;119017;-82
2023/05/30 04:01:45;;;;;;;;;;;19.20;53.70;;;19.48;39.58;98951.97;5082756;27;118490;-83
2023/05/30 04:04:14;;;;;;;;;;;19.20;53.80;;;19.44;39.92;98951.91;5072631;27;124036;-82
2023/05/30 04:06:40;;;;;;;;;;;19.20;54.00;;;19.40;39.82;98951.84;5079273;27;123485;-83
2023/05/30 04:09:07;;;;;;;;;;;19.20;54.20;;;19.35;39.94;98943.72;5080678;27;120142;-82
2023/05/30 04:11:40;;;;;;;;;;;19.20;54.30;;;19.31;40.24;98956.84;5069177;27;118847;-82
2023/05/30 04:14:06;;;;;;;;;;;19.10;54.40;;;19.27;40.36;98950.38;5074930;27;125525;-83
2023/05/30 04:16:32;;;;;;;;;;;19.10;54.60;;;19.21;40.51;98960.25;5087881;27;124476;-82
2023/05/30 04:19:01;;;;;;;;;;;19.00;54.80;;;19.16;40.91;98961.34;5072648;27;119141;-82
2023/05/30 04:21:30;;;;;;;;;;;19.00;55.20;;;19.10;40.84;98968.41;5088556;27;118707;-83
2023/05/30 04:23:56;;;;;;;;;;;18.90;55.20;;;19.06;41.05;98970.31;5087845;27;123022;-82
2023/05/30 04:26:25;;;;;;;;;;;18.90;55.60;;;19.00;41.28;98970.97;5069263;27;125141;-83
2023/05/30 04:28:56;;;;;;;;;;;18.80;55.80;;;18.94;41.64;98967.59;5063567;27;119792;-83
2023/05/30 04:31:25;;;;;;;;;;;18.70;55.90;;;18.92;41.68;98962.38;5060042;27;118817;-83
2023/05/30 04:33:53;;;;;;;;;;;18.70;56.10;;;18.88;41.68;98964.28;5067286;27;124099;-82
2023/05/30 04:36:19;;;;;;;;;;;18.70;56.20;;;18.82;42.01;98959.34;5074657;27;124741;-83
2023/05/30 04:38:54;;;;;;;;;;;18.60;56.60;;;18.75;42.35;98968.34;5090120;27;119520;-83
2023/05/30 04:41:24;;;;;;;;;;;18.50;56.80;;;18.70;42.48;98971.44;5069586;27;119012;-83
2023/05/30 04:43:57;;;;;;;;;;;18.50;57.00;;;18.68;42.44;98987.75;5082661;27;123840;-83
2023/05/30 04:46:30;;;;;;;;;;;18.40;57.00;;;18.65;42.59;98983.69;5060548;27;124742;-83
2023/05/30 04:49:00;;;;;;;;;;;18.40;57.10;;;18.63;42.66;98990.84;5076925;27;118755;-83
2023/05/30 04:51:29;;;;;;;;;;;18.40;57.30;;;18.61;42.69;98987.56;5072094;27;118558;-83
2023/05/30 04:54:02;;;;;;;;;;;18.40;57.40;;;18.63;42.75;98990.84;5077248;27;124409;-82
2023/05/30 04:56:31;;;;;;;;;;;18.40;57.60;;;18.64;42.74;98992.44;5074188;27;123113;-83
2023/05/30 04:59:01;;;;;;;;;;;18.40;57.80;;;18.66;42.67;98995.69;5042769;27;118983;-83
2023/05/30 05:01:28;;;;;;;;;;;18.40;57.70;;;18.68;42.74;98993.34;5060054;27;118125;-82
2023/05/30 05:03:54;;;;;;;;;;;18.40;57.80;;;18.70;42.70;98997.44;5059539;27;124058;-78
2023/05/30 05:06:21;;;;;;;;;;;18.40;57.80;;;18.74;42.77;99003.94;5073402;27;124552;-82
2023/05/30 05:08:50;;;;;;;;;;;18.40;57.90;;;18.78;42.64;99009.66;5073251;27;120406;-81
2023/05/30 05:11:17;;;;;;;;;;;18.40;57.90;;;18.81;42.76;99013.72;5067126;27;118575;-83
2023/05/30 05:13:43;;;;;;;;;;;18.40;57.90;;;18.82;42.66;99016.13;5069918;27;125266;-84
2023/05/30 05:16:13;;;;;;;;;;;18.50;58.20;;;18.82;42.83;99004.94;5041256;27;122904;-83
2023/05/30 05:18:39;;;;;;;;;;;18.50;58.30;;;18.82;42.81;99010.53;5067888;27;119808;-83
2023/05/30 05:21:06;;;;;;;;;;;18.50;58.40;;;18.82;43.10;98999.34;5051762;27;118605;-82
2023/05/30 05:23:40;;;;;;;;;;;18.50;58.50;;;18.84;43.25;99019.38;5051289;27;123516;-83
2023/05/30 05:26:06;;;;;;;;;;;18.50;58.80;;;18.82;43.42;99013.31;5073642;27;123908;-81
2023/05/30 05:28:32;;;;;;;;;;;18.50;59.00;;;18.83;43.27;99009.34;5078371;27;119619;-83
2023/05/30 05:31:01;;;;;;;;;;;18.40;58.90;;;18.84;43.30;99019.38;5077582;27;118687;-83
2023/05/30 05:33:27;;;;;;;;;;;18.50;59.10;;;18.84;43.32;99013.78;5053211;27;124115;-83
2023/05/30 05:35:54;;;;;;;;;;;18.50;59.10;;;18.84;43.54;99013.78;5071782;27;122765;-82
2023/05/30 05:38:20;;;;;;;;;;;18.50;59.70;;;18.82;43.50;99016.13;5038071;27;119713;-83
2023/05/30 05:40:49;;;;;;;;;;;18.40;59.40;;;18.80;43.59;99021.28;5060469;27;119257;-82
2023/05/30 05:43:18;;;;;;;;;;;18.40;59.70;;;18.82;43.70;99021.72;5078252;27;124288;-82
2023/05/30 05:45:44;;;;;;;;;;;18.40;59.70;;;18.83;43.99;99034.53;5078591;27;123016;-83
2023/05/30 05:48:13;;;;;;;;;;;18.40;60.00;;;18.85;43.72;99035.00;5068906;27;120034;-82
2023/05/30 05:50:39;;;;;;;;;;;18.50;60.00;;;18.83;44.16;99034.53;5068062;27;118683;-82
2023/05/30 05:53:05;;;;;;;;;;;18.50;60.60;;;18.77;44.45;99036.81;5062797;27;124248;-83
2023/05/30 05:55:32;;;;;;;;;;;18.40;60.60;;;18.74;44.40;99031.09;5068714;27;124347;-82
2023/05/30 05:58:01;;;;;;;;;;;18.40;60.80;;;18.78;44.37;99032.03;5079280;27;119664;-83
2023/05/30 06:00:27;;;;;;;;;;;18.50;60.50;;;18.82;44.21;99034.91;5068416;27;119110;-82
2023/05/30 06:02:53;;;;;;;;;;;18.50;60.40;;;18.88;44.29;99039.88;5055498;27;124350;-82
2023/05/30 06:05:20;;;;;;;;;;;18.50;60.60;;;18.93;44.13;99034.00;5076852;27;124077;-82
2023/05/30 06:07:52;;;;;;;;;;;18.50;60.60;;;19.02;44.21;99041.41;5048289;27;119467;-83
2023/05/30 06:10:18;;;;;;;;;;;18.60;60.70;;;19.06;44.02;99045.09;5060009;27;119828;-83
2023/05/30 06:12:48;;;;;;;;;;;18.60;60.70;;;19.07;43.46;99046.72;5077941;27;124536;-82
2023/05/30 06:15:15;;;;;;;;;;;18.60;60.10;;;19.03;43.25;99048.63;5084316;27;124034;-81
2023/05/30 06:17:41;;;;;;;;;;;18.60;59.70;;;19.02;43.29;99052.59;5072123;27;118979;-82
2023/05/30 06:20:08;;;;;;;;;;;18.60;59.60;;;19.02;43.37;99050.63;5067541;27;118820;-82
2023/05/30 06:22:42;;;;;;;;;;;18.60;59.80;;;19.09;43.25;99058.38;5072145;27;123883;-82
2023/05/30 06:25:08;;;;;;;;;;;18.70;59.70;;;19.14;43.50;99052.50;5068289;27;123710;-84
2023/05/30 06:27:36;;;;;;;;;;;18.70;59.90;;;19.16;43.43;99059.38;5058307;27;119785;-83
2023/05/30 06:30:03;;;;;;;;;;;18.70;59.90;;;19.16;43.64;99058.56;5083258;27;119331;-83
2023/05/30 06:32:29;;;;;;;;;;;18.70;60.00;;;19.24;42.98;99062.34;5053393;27;123629;-82
2023/05/30 06:34:55;;;;;;;;;;;18.80;59.80;;;19.35;43.09;99058.63;5072635;27;123970;-80
2023/05/30 06:37:27;;;;;;;;;;;18.80;59.80;;;19.36;43.05;99062.22;5078415;27;119410;-82
2023/05/30 06:39:54;;;;;;;;;;;18.90;59.80;;;19.40;42.53;99063.13;5084822;27;118901;-82
2023/05/30 06:42:20;;;;;;;;;;;18.90;59.50;;;19.43;42.59;99065.19;5068613;27;123909;-80
2023/05/30 06:44:50;;;;;;;;;;;18.90;59.30;;;19.48;42.63;99069.69;5064016;27;124260;-81
2023/05/30 06:47:16;;;;;;;;;;;19.00;59.40;;;19.52;42.22;99073.41;5072334;27;119864;-80
2023/05/30 06:49:42;;;;;;;;;;;19.00;59.20;;;19.58;42.10;99064.31;5086102;27;118792;-81
2023/05/30 06:52:08;;;;;;;;;;;19.10;59.00;;;19.65;41.88;99070.09;5043587;27;123821;-81
2023/05/30 06:54:37;;;;;;;;;;;19.20;58.80;;;19.73;41.69;99075.91;5069264;27;124013;-81
2023/05/30 06:57:06;;;;;;;;;;;19.20;58.40;;;19.80;41.42;99071.25;5075774;27;120571;-82
2023/05/30 06:59:33;;;;;;;;;;;19.30;58.40;;;19.85;41.29;99068.16;5051425;27;118832;-83
2023/05/30 07:02:01;;;;;;;;;;;19.30;58.20;;;19.86;41.36;99069.78;5049728;27;124152;-82
2023/05/30 07:04:28;;;;;;;;;;;19.40;58.30;;;19.94;41.43;99081.16;5058436;27;124292;-82
2023/05/30 07:06:54;;;;;;;;;;;19.40;58.30;;;20.01;40.85;99064.47;5076261;27;119734;-82
2023/05/30 07:09:26;;;;;;;;;;;19.50;58.00;;;20.08;40.85;99059.00;5067690;27;119079;-82
2023/05/30 07:11:52;;;;;;;;;;;19.60;57.80;;;20.14;40.70;99057.53;5046580;27;123447;-81
2023/05/30 07:14:20;;;;;;;;;;;19.60;57.50;;;20.20;40.62;99055.22;5077054;27;124113;-81
2023/05/30 07:16:49;;;;;;;;;;;19.60;57.40;;;20.21;40.29;99063.28;5087255;27;118902;-81
2023/05/30 07:19:15;;;;;;;;;;;19.70;57.30;;;20.23;40.49;99066.53;5078101;27;118737;-80
2023/05/30 07:21:41;;;;;;;;;;;19.70;57.10;;;20.23;40.48;99060.94;5071166;27;124543;-83
2023/05/30 07:24:08;;;;;;;;;;;19.70;57.10;;;20.25;40.17;99074.56;5076996;27;125012;-82
2023/05/30 07:26:37;;;;;;;;;;;19.80;57.20;;;20.22;39.91;99064.91;5081071;27;119713;-82
2023/05/30 07:29:04;;;;;;;;;;;19.70;56.80;;;20.21;39.97;99071.69;5048903;27;118237;-82
2023/05/30 07:31:30;;;;;;;;;;;19.70;56.80;;;20.29;40.08;99075.47;5056510;27;123985;-82
2023/05/30 07:33:56;;;;;;;;;;;19.80;56.90;;;20.36;39.94;99071.97;5055992;27;123850;-82
2023/05/30 07:36:24;;;;;;;;;;;19.80;56.80;;;20.43;39.76;99072.94;5072185;27;120069;-81
2023/05/30 07:38:50;;;;;;;;;;;19.80;57.00;;;20.53;39.61;99079.94;5047323;27;117920;-82
2023/05/30 07:41:17;;;;;;;;;;;19.90;57.00;;;20.67;39.56;99080.22;5069216;27;124223;-81
2023/05/30 07:43:48;;;;;;;;;;;20.00;56.90;;;20.72;39.45;99076.28;5087701;27;123697;-81
2023/05/30 07:46:14;;;;;;;;;;;20.10;56.70;;;20.72;39.54;99071.50;5063167;27;121772;-82
2023/05/30 07:48:40;;;;;;;;;;;20.10;56.50;;;20.71;39.42;99071.84;5059310;27;119899;-83
2023/05/30 07:51:08;;;;;;;;;;;20.20;56.40;;;20.68;39.60;99070.59;5062868;27;125331;-82
2023/05/30 07:53:36;;;;;;;;;;;20.10;56.60;;;20.67;39.65;99065.38;5057762;27;123339;-83
2023/05/30 07:56:03;;;;;;;;;;;20.10;56.60;;;20.68;39.37;99056.56;5075977;27;119528;-83
2023/05/30 07:58:29;;;;;;;;;;;20.20;56.50;;;20.69;39.49;99058.19;5061070;27;118901;-82
2023/05/30 08:00:57;;;;;;;;;;;20.20;56.50;;;20.74;39.57;99063.50;5079701;27;124308;-82
2023/05/30 08:03:25;;;;;;;;;;;20.30;56.50;;;20.84;39.41;99066.88;5061477;27;124618;-82
2023/05/30 08:05:52;;;;;;;;;;;20.30;56.40;;;20.86;39.36;99062.50;5082290;27;120434;-81
2023/05/30 08:08:18;;;;;;;;;;;20.30;56.00;;;20.84;38.76;99061.25;5083091;27;118974;-81
2023/05/30 08:10:50;;;;;;;;;;;20.30;56.00;;;20.81;38.87;99059.19;5078509;27;123828;-82
2023/05/30 08:13:19;;;;;;;;;;;20.20;56.00;;;20.84;39.04;99055.63;5056759;27;125922;-82
2023/05/30 08:15:48;;;;;;;;;;;20.30;56.00;;;20.92;39.01;99071.41;5062222;27;119796;-82
2023/05/30 08:18:15;;;;;;;;;;;20.40;56.10;;;21.03;39.23;99066.78;5069387;27;119085;-82
2023/05/30 08:20:41;;;;;;;;;;;20.40;56.00;;;21.11;38.96;99064.91;5073939;27;124655;-82
2023/05/30 08:23:07;;;;;;;;;;;20.50;56.00;;;21.11;38.70;99065.72;5087273;27;124198;-82
2023/05/30 08:25:42;;;;;;;;;;;20.60;55.70;;;21.12;38.51;99061.72;5068867;27;118925;-81
2023/05/30 08:28:14;;;;;;;;;;;20.60;55.70;;;21.14;38.30;99056.56;5067725;27;118684;-81
2023/05/30 08:30:48;;;;;;;;;;;20.60;55.50;;;21.19;38.71;99059.00;5083961;27;124050;-80
2023/05/30 08:33:18;;;;;;;;;;;20.60;55.60;;;21.22;38.46;99059.47;5054265;27;122843;-80
2023/05/30 08:35:48;;;;;;;;;;;20.70;55.70;;;21.28;38.32;99057.94;5063971;27;119612;-81
2023/05/30 08:38:15;;;;;;;;;;;20.70;55.80;;;21.32;38.42;99054.00;5077480;27;119821;-80
2023/05/30 08:40:50;;;;;;;;;;;20.70;55.30;;;21.40;38.21;99046.53;5051193;27;123256;-81
2023/05/30 08:43:20;;;;;;;;;;;20.80;55.20;;;21.47;37.64;99055.06;5062575;27;124213;-80
2023/05/30 08:45:55;;;;;;;;;;;20.90;54.90;;;21.52;37.24;99049.13;5048939;27;118443;-79
2023/05/30 08:48:31;;;;;;;;;;;20.90;54.40;;;21.56;37.28;99052.78;5079337;27;118946;-80
2023/05/30 08:51:07;;;;;;;;;;;20.90;54.40;;;21.69;36.77;99058.19;5038363;27;123389;-80
2023/05/30 08:53:44;;;;;;;;;;;21.00;54.10;;;21.75;37.03;99051.03;5060696;27;123725;-80
2023/05/30 08:56:28;;;;;;;;;;;21.10;54.10;;;21.82;36.60;99048.31;5050035;27;119101;-80
2023/05/30 08:58:56;;;;;;;;;;;21.20;53.80;;;21.92;36.30;99046.81;5067930;27;119161;-81
2023/05/30 09:01:25;;;;;;;;;;;21.20;53.70;;;22.01;36.54;99050.16;5072567;27;124392;-81
2023/05/30 09:03:51;;;;;;;;;;;21.40;53.60;;;22.07;36.17;99054.25;5072319;27;123243;-80
2023/05/30 09:06:18;;;;;;;;;;;21.50;53.10;;;22.09;36.01;99051.06;5067546;27;119408;-80
2023/05/30 09:08:51;;;;;;;;;;;21.50;52.90;;;22.05;35.88;99043.34;5065787;27;118825;-80
2023/05/30 09:11:28;;;;;;;;;;;21.50;52.60;;;22.05;35.89;99046.19;5083601;27;124350;-80
2023/05/30 09:13:55;;;;;;;;;;;21.50;52.90;;;22.11;36.15;99031.75;5058017;27;123147;-80
2023/05/30 09:16:26;;;;;;;;;;;21.60;53.10;;;22.17;36.08;99035.88;5054625;27;118354;-81
2023/05/30 09:18:54;;;;;;;;;;;21.60;52.80;;;22.24;35.93;99041.59;5050627;27;119010;-79
2023/05/30 09:21:30;;;;;;;;;;;21.70;52.80;;;22.25;35.86;99046.06;5044197;27;123001;-79
2023/05/30 09:24:01;;;;;;;;;;;21.70;52.50;;;22.28;35.97;99039.66;5055267;27;124181;-80
2023/05/30 09:26:28;;;;;;;;;;;21.80;52.60;;;22.31;35.99;99032.44;5081495;27;121180;-80
2023/05/30 09:28:54;;;;;;;;;;;21.80;52.80;;;22.31;36.02;99038.88;5067547;27;120107;-80
2023/05/30 09:31:25;;;;;;;;;;;21.80;52.80;;;22.30;35.87;99039.25;5080674;27;123534;-80
2023/05/30 09:33:51;;;;;;;;;;;21.70;52.50;;;22.27;35.98;99046.44;5080581;27;123492;-81
2023/05/30 09:36:28;;;;;;;;;;;21.70;52.50;;;22.27;36.03;99046.44;5079935;27;119594;-81
2023/05/30 09:39:04;;;;;;;;;;;21.80;52.80;;;22.24;36.08;99038.78;5068156;27;119239;-80
2023/05/30 09:41:30;;;;;;;;;;;21.80;52.70;;;22.27;36.29;99038.84;5074658;27;124276;-80
2023/05/30 09:44:02;;;;;;;;;;;21.80;52.80;;;22.36;35.98;99041.34;5046799;27;124009;-80
2023/05/30 09:46:30;;;;;;;;;;;21.90;52.90;;;22.43;35.74;99038.63;5081945;27;119427;-81
2023/05/30 09:49:16;;;;;;;;;;;21.90;52.90;;;22.47;35.64;99033.81;5035606;27;118329;-80
2023/05/30 09:51:50;;;;;;;;;;;22.00;52.20;;;22.50;35.51;99027.41;5028680;27;125733;-81
2023/05/30 09:54:16;;;;;;;;;;;22.00;52.30;;;22.59;35.52;99040.34;5060612;27;124118;-82
2023/05/30 09:56:43;;;;;;;;;;;22.10;52.30;;;22.65;35.62;99044.47;5034424;27;120171;-80
2023/05/30 09:59:13;;;;;;;;;;;22.10;52.30;;;22.69;35.35;99036.84;5045598;27;118787;-80
2023/05/30 10:01:41;;;;;;;;;;;22.10;52.20;;;22.75;35.25;99034.47;5046881;27;124686;-81
2023/05/30 10:04:23;;;;;;;;;;;22.20;52.20;;;22.77;35.44;99032.88;5043124;27;124174;-81
2023/05/30 10:06:54;;;;;;;;;;;22.30;52.00;;;22.81;34.97;99030.91;5030790;27;120542;-80
2023/05/30 10:09:28;;;;;;;;;;;22.30;51.70;;;22.81;34.90;99030.91;5013690;27;118560;-81
2023/05/30 10:11:56;;;;;;;;;;;22.30;51.40;;;22.83;34.94;99031.31;5029862;27;123698;-80
2023/05/30 10:14:23;;;;;;;;;;;22.30;51.60;;;22.86;35.12;99024.94;5053717;27;123597;-81
2023/05/30 10:17:00;;;;;;;;;;;22.30;51.70;;;22.90;34.85;99014.50;5025371;27;120959;-80
2023/05/30 10:19:40;;;;;;;;;;;22.40;51.70;;;22.97;34.78;99015.75;5046947;27;119926;-83
2023/05/30 10:22:07;;;;;;;;;;;22.40;51.80;;;22.97;34.86;99016.59;5061523;27;124237;-80
2023/05/30 10:24:40;;;;;;;;;;;22.50;51.50;;;22.97;34.63;99013.78;5071305;27;124198;-80
2023/05/30 10:27:15;;;;;;;;;;;22.50;51.20;;;23.00;34.50;99003.72;5054454;27;119125;-80
2023/05/30 10:29:48;;;;;;;;;;;22.50;51.40;;;23.00;34.45;99012.16;5061928;27;118340;-80
2023/05/30 10:32:25;;;;;;;;;;;22.50;51.20;;;22.95;34.44;99004.88;5067385;27;124647;-81
2023/05/30 10:34:56;;;;;;;;;;;22.50;51.00;;;23.04;34.72;99004.56;5052827;27;123939;-81
2023/05/30 10:37:23;;;;;;;;;;;22.60;51.10;;;23.11;34.21;99005.41;5062876;27;119540;-81
2023/05/30 10:40:11;;;;;;;;;;;22.60;50.70;;;23.15;34.04;98994.97;5077916;27;119066;-81
2023/05/30 10:43:01;;;;;;;;;;;22.70;50.70;;;23.25;33.58;99004.69;5068728;27;123870;-81
2023/05/30 10:45:38;;;;;;;;;;;22.70;50.10;;;23.31;33.41;98993.84;5058651;27;123866;-81
2023/05/30 10:48:23;;;;;;;;;;;22.80;49.70;;;23.38;33.33;98985.47;5074920;27;119639;-81
2023/05/30 10:50:53;;;;;;;;;;;22.90;49.60;;;23.44;32.88;98989.50;5083851;27;118003;-81
2023/05/30 10:53:25;;;;;;;;;;;22.90;49.30;;;23.45;32.94;98993.94;5065239;27;124993;-80
2023/05/30 10:55:52;;;;;;;;;;;22.90;49.20;;;23.51;32.55;98989.56;5089749;27;124049;-80
2023/05/30 10:58:38;;;;;;;;;;;23.00;49.00;;;23.56;32.45;98985.53;5079740;27;119395;-82
2023/05/30 11:01:28;;;;;;;;;;;23.10;48.80;;;23.63;32.25;98982.75;5073258;27;118773;-80
2023/05/30 11:04:08;;;;;;;;;;;23.10;48.50;;;23.72;32.52;98977.59;5069180;27;124094;-80
2023/05/30 11:06:43;;;;;;;;;;;23.20;48.60;;;23.81;32.62;98982.88;5038468;27;123052;-80
2023/05/30 11:09:15;;;;;;;;;;;23.30;48.90;;;23.91;32.52;98962.34;5053091;27;120932;-80
2023/05/30 11:11:46;;;;;;;;;;;23.40;48.80;;;23.98;31.87;98976.47;5066815;27;119853;-81
2023/05/30 11:14:14;;;;;;;;;;;23.50;47.80;;;24.10;31.65;98975.31;5051821;27;123263;-80
2023/05/30 11:16:58;;;;;;;;;;;23.60;48.10;;;24.24;31.72;98972.50;5055060;27;124509;-79
2023/05/30 11:19:26;;;;;;;;;;;23.70;48.10;;;24.31;30.99;98965.25;5054111;27;120031;-80
2023/05/30 11:22:02;;;;;;;;;;;23.70;46.70;;;24.33;30.25;98966.47;5079152;27;118971;-79